createdAt,value
2017-02-13T00:00:38.212Z,1024.36
2017-02-13T00:01:48.145Z,1024.37
2017-02-13T00:02:58.842Z,1024.39
2017-02-13T00:04:08.746Z,1024.39
2017-02-13T00:05:19.581Z,1024.43
2017-02-13T00:06:29.900Z,1024.38
2017-02-13T00:07:39.811Z,1024.4
2017-02-13T00:08:50.104Z,1024.31
2017-02-13T00:10:00.003Z,1024.34
2017-02-13T00:11:10.693Z,1024.35
2017-02-13T00:12:20.612Z,1024.33
2017-02-13T00:13:30.537Z,1024.33
2017-02-13T00:14:40.844Z,1024.29
2017-02-13T00:15:51.160Z,1024.28
2017-02-13T00:17:01.954Z,1024.31
2017-02-13T00:18:12.245Z,1024.3
2017-02-13T00:19:22.567Z,1024.25
2017-02-13T00:20:32.879Z,1024.25
2017-02-13T00:21:43.574Z,1024.26
2017-02-13T00:22:54.359Z,1024.23
2017-02-13T00:24:04.631Z,1024.23
2017-02-13T00:25:14.911Z,1024.19
2017-02-13T00:26:25.566Z,1024.22
2017-02-13T00:27:36.257Z,1024.17
2017-02-13T00:28:47.039Z,1024.19
2017-02-13T00:29:56.951Z,1024.14
2017-02-13T00:31:07.645Z,1024.1
2017-02-13T00:32:17.927Z,1024.14
2017-02-13T00:33:28.228Z,1024.12
2017-02-13T00:34:38.764Z,1024.12
2017-02-13T00:35:48.666Z,1024.1
2017-02-13T00:36:59.334Z,1024.06
2017-02-13T00:38:10.005Z,1024.09
2017-02-13T00:39:20.688Z,1024.06
2017-02-13T00:40:31.112Z,1024.11
2017-02-13T00:41:41.416Z,1024.1
2017-02-13T00:42:51.305Z,1024.13
2017-02-13T00:44:01.982Z,1024.12
2017-02-13T00:45:11.895Z,1024.14
2017-02-13T00:46:22.486Z,1024.2
2017-02-13T00:47:32.413Z,1024.18
2017-02-13T00:48:42.599Z,1024.17
2017-02-13T00:49:53.593Z,1024.19
2017-02-13T00:51:03.502Z,1024.2
2017-02-13T00:52:13.181Z,1024.19
2017-02-13T00:53:23.097Z,1024.21
2017-02-13T00:54:33.367Z,1024.22
2017-02-13T00:55:43.282Z,1024.21
2017-02-13T00:56:53.546Z,1024.22
2017-02-13T00:58:04.467Z,1024.24
2017-02-13T00:59:15.139Z,1024.24
2017-02-13T01:00:25.480Z,1024.24
2017-02-13T01:01:36.208Z,1024.22
2017-02-13T01:02:46.503Z,1024.27
2017-02-13T01:03:57.045Z,1024.2
2017-02-13T01:05:07.766Z,1024.22
2017-02-13T01:06:18.432Z,1024.22
2017-02-13T01:07:28.327Z,1024.25
2017-02-13T01:08:39.003Z,1024.23
2017-02-13T01:09:49.950Z,1024.19
2017-02-13T01:11:00.259Z,1024.14
2017-02-13T01:12:10.938Z,1024.18
2017-02-13T01:13:20.852Z,1024.19
2017-02-13T01:14:31.568Z,1024.21
2017-02-13T01:15:42.144Z,1024.16
2017-02-13T01:16:52.437Z,1024.16
2017-02-13T01:18:03.106Z,1024.17
2017-02-13T01:19:14.073Z,1024.17
2017-02-13T01:20:24.365Z,1024.14
2017-02-13T01:21:34.955Z,1024.18
2017-02-13T01:22:45.633Z,1024.22
2017-02-13T01:23:55.514Z,1024.23
2017-02-13T01:25:05.814Z,1024.22
2017-02-13T01:26:15.701Z,1024.27
2017-02-13T01:27:26.637Z,1024.27
2017-02-13T01:28:36.933Z,1024.3
2017-02-13T01:29:47.212Z,1024.31
2017-02-13T01:30:57.547Z,1024.3
2017-02-13T01:32:07.826Z,1024.32
2017-02-13T01:33:18.745Z,1024.36
2017-02-13T01:34:29.475Z,1024.34
2017-02-13T01:35:39.775Z,1024.36
2017-02-13T01:36:50.058Z,1024.4
2017-02-13T01:38:00.708Z,1024.38
2017-02-13T01:39:10.865Z,1024.4
2017-02-13T01:40:21.524Z,1024.43
2017-02-13T01:41:32.235Z,1024.41
2017-02-13T01:42:41.750Z,1024.42
2017-02-13T01:43:52.445Z,1024.36
2017-02-13T01:45:03.046Z,1024.36
2017-02-13T01:46:12.975Z,1024.33
2017-02-13T01:47:23.281Z,1024.3
2017-02-13T01:48:33.948Z,1024.28
2017-02-13T01:49:44.246Z,1024.27
2017-02-13T01:50:55.209Z,1024.23
2017-02-13T01:52:05.483Z,1024.28
2017-02-13T01:53:16.217Z,1024.3
2017-02-13T01:54:26.503Z,1024.26
2017-02-13T01:55:36.789Z,1024.26
2017-02-13T01:56:47.778Z,1024.31
2017-02-13T01:57:58.068Z,1024.28
2017-02-13T01:59:08.771Z,1024.34
2017-02-13T02:00:18.691Z,1024.33
2017-02-13T02:01:29.032Z,1024.31
2017-02-13T02:02:39.973Z,1024.34
2017-02-13T02:03:50.247Z,1024.31
2017-02-13T02:04:59.784Z,1024.3
2017-02-13T02:06:10.506Z,1024.34
2017-02-13T02:07:20.343Z,1024.35
2017-02-13T02:08:30.948Z,1024.33
2017-02-13T02:09:41.256Z,1024.43
2017-02-13T02:10:51.921Z,1024.39
2017-02-13T02:12:02.217Z,1024.37
2017-02-13T02:13:12.894Z,1024.39
2017-02-13T02:14:23.455Z,1024.4
2017-02-13T02:15:33.397Z,1024.41
2017-02-13T02:16:44.062Z,1024.47
2017-02-13T02:17:54.753Z,1024.5
2017-02-13T02:19:04.662Z,1024.52
2017-02-13T02:20:15.576Z,1024.49
2017-02-13T02:21:26.275Z,1024.49
2017-02-13T02:22:36.951Z,1024.44
2017-02-13T02:23:47.616Z,1024.42
2017-02-13T02:24:58.427Z,1024.41
2017-02-13T02:26:08.877Z,1024.4
2017-02-13T02:27:19.538Z,1024.39
2017-02-13T02:28:30.112Z,1024.35
2017-02-13T02:29:40.441Z,1024.33
2017-02-13T02:30:50.362Z,1024.4
2017-02-13T02:32:01.303Z,1024.4
2017-02-13T02:33:11.997Z,1024.37
2017-02-13T02:34:22.726Z,1024.38
2017-02-13T02:35:33.001Z,1024.42
2017-02-13T02:36:43.716Z,1024.44
2017-02-13T02:37:54.625Z,1024.4
2017-02-13T02:39:04.137Z,1024.44
2017-02-13T02:40:14.430Z,1024.44
2017-02-13T02:41:24.322Z,1024.44
2017-02-13T02:42:34.991Z,1024.45
2017-02-13T02:43:45.541Z,1024.47
2017-02-13T02:44:55.882Z,1024.41
2017-02-13T02:46:06.188Z,1024.43
2017-02-13T02:47:16.492Z,1024.44
2017-02-13T02:48:26.793Z,1024.4
2017-02-13T02:49:37.320Z,1024.39
2017-02-13T02:50:47.229Z,1024.42
2017-02-13T02:51:57.509Z,1024.37
2017-02-13T02:53:07.411Z,1024.38
2017-02-13T02:54:17.720Z,1024.36
2017-02-13T02:55:28.670Z,1024.33
2017-02-13T02:56:38.952Z,1024.39
2017-02-13T02:57:49.658Z,1024.35
2017-02-13T02:59:00.366Z,1024.4
2017-02-13T03:00:11.074Z,1024.39
2017-02-13T03:01:21.350Z,1024.41
2017-02-13T03:02:31.252Z,1024.44
2017-02-13T03:03:41.926Z,1024.5
2017-02-13T03:04:52.212Z,1024.47
2017-02-13T03:06:02.895Z,1024.51
2017-02-13T03:07:13.425Z,1024.48
2017-02-13T03:08:23.736Z,1024.47
2017-02-13T03:09:33.627Z,1024.48
2017-02-13T03:10:43.564Z,1024.49
2017-02-13T03:11:53.876Z,1024.47
2017-02-13T03:13:03.682Z,1024.51
2017-02-13T03:14:13.563Z,1024.45
2017-02-13T03:15:24.255Z,1024.47
2017-02-13T03:16:34.943Z,1024.5
2017-02-13T03:17:45.638Z,1024.5
2017-02-13T03:18:56.185Z,1024.49
2017-02-13T03:20:06.883Z,1024.49
2017-02-13T03:21:16.812Z,1024.52
2017-02-13T03:22:27.469Z,1024.46
2017-02-13T03:23:37.782Z,1024.53
2017-02-13T03:24:48.000Z,1024.53
2017-02-13T03:25:58.277Z,1024.51
2017-02-13T03:27:07.806Z,1024.52
2017-02-13T03:28:17.683Z,1024.49
2017-02-13T03:29:28.351Z,1024.43
2017-02-13T03:30:38.100Z,1024.41
2017-02-13T03:31:48.368Z,1024.38
2017-02-13T03:32:58.651Z,1024.29
2017-02-13T03:34:08.943Z,1024.29
2017-02-13T03:35:19.252Z,1024.3
2017-02-13T03:36:30.244Z,1024.29
2017-02-13T03:37:40.923Z,1024.3
2017-02-13T03:38:51.238Z,1024.3
2017-02-13T03:40:01.554Z,1024.29
2017-02-13T03:41:11.835Z,1024.26
2017-02-13T03:42:22.914Z,1024.23
2017-02-13T03:43:33.217Z,1024.21
2017-02-13T03:44:43.501Z,1024.24
2017-02-13T03:45:54.242Z,1024.17
2017-02-13T03:47:04.890Z,1024.21
2017-02-13T03:48:15.796Z,1024.23
2017-02-13T03:49:26.095Z,1024.25
2017-02-13T03:50:36.774Z,1024.31
2017-02-13T03:51:47.441Z,1024.33
2017-02-13T03:52:58.125Z,1024.36
2017-02-13T03:54:08.723Z,1024.37
2017-02-13T03:55:19.414Z,1024.37
2017-02-13T03:56:29.726Z,1024.36
2017-02-13T03:57:40.021Z,1024.37
2017-02-13T03:58:49.543Z,1024.41
2017-02-13T04:00:00.144Z,1024.36
2017-02-13T04:01:10.060Z,1024.35
2017-02-13T04:02:19.959Z,1024.36
2017-02-13T04:03:30.230Z,1024.36
2017-02-13T04:04:40.510Z,1024.37
2017-02-13T04:05:51.465Z,1024.34
2017-02-13T04:07:00.974Z,1024.36
2017-02-13T04:08:11.266Z,1024.36
2017-02-13T04:09:21.937Z,1024.39
2017-02-13T04:10:32.617Z,1024.41
2017-02-13T04:11:43.038Z,1024.4
2017-02-13T04:12:53.315Z,1024.39
2017-02-13T04:14:03.239Z,1024.36
2017-02-13T04:15:13.912Z,1024.33
2017-02-13T04:16:24.605Z,1024.35
2017-02-13T04:17:35.148Z,1024.37
2017-02-13T04:18:45.440Z,1024.34
2017-02-13T04:19:56.142Z,1024.41
2017-02-13T04:21:06.436Z,1024.45
2017-02-13T04:22:16.732Z,1024.47
2017-02-13T04:23:27.257Z,1024.51
2017-02-13T04:24:37.959Z,1024.51
2017-02-13T04:25:48.648Z,1024.47
2017-02-13T04:26:58.569Z,1024.5
2017-02-13T04:28:08.088Z,1024.47
2017-02-13T04:29:19.072Z,1024.48
2017-02-13T04:30:29.344Z,1024.46
2017-02-13T04:31:40.010Z,1024.51
2017-02-13T04:32:50.286Z,1024.54
2017-02-13T04:34:00.578Z,1024.46
2017-02-13T04:35:11.148Z,1024.41
2017-02-13T04:36:21.474Z,1024.39
2017-02-13T04:37:32.164Z,1024.35
2017-02-13T04:38:42.851Z,1024.33
2017-02-13T04:39:53.533Z,1024.35
2017-02-13T04:41:04.502Z,1024.37
2017-02-13T04:42:15.189Z,1024.42
2017-02-13T04:43:25.459Z,1024.42
2017-02-13T04:44:35.758Z,1024.45
2017-02-13T04:45:46.033Z,1024.47
2017-02-13T04:46:56.590Z,1024.46
2017-02-13T04:48:06.914Z,1024.45
2017-02-13T04:49:17.182Z,1024.41
2017-02-13T04:50:27.475Z,1024.39
2017-02-13T04:51:38.164Z,1024.36
2017-02-13T04:52:49.084Z,1024.32
2017-02-13T04:53:59.427Z,1024.36
2017-02-13T04:55:09.725Z,1024.4
2017-02-13T04:56:20.015Z,1024.43
2017-02-13T04:57:30.313Z,1024.42
2017-02-13T04:58:41.232Z,1024.41
2017-02-13T04:59:51.931Z,1024.4
2017-02-13T05:01:02.609Z,1024.31
2017-02-13T05:02:12.969Z,1024.35
2017-02-13T05:03:23.267Z,1024.33
2017-02-13T05:04:33.407Z,1024.32
2017-02-13T05:05:43.686Z,1024.32
2017-02-13T05:06:53.972Z,1024.32
2017-02-13T05:08:04.282Z,1024.26
2017-02-13T05:09:14.951Z,1024.23
2017-02-13T05:10:25.901Z,1024.28
2017-02-13T05:11:36.590Z,1024.31
2017-02-13T05:12:46.927Z,1024.24
2017-02-13T05:13:57.648Z,1024.33
2017-02-13T05:15:08.355Z,1024.29
2017-02-13T05:16:18.878Z,1024.31
2017-02-13T05:17:29.545Z,1024.33
2017-02-13T05:18:39.842Z,1024.31
2017-02-13T05:19:49.742Z,1024.34
2017-02-13T05:21:00.398Z,1024.28
2017-02-13T05:22:10.587Z,1024.31
2017-02-13T05:23:20.495Z,1024.28
2017-02-13T05:24:31.200Z,1024.32
2017-02-13T05:25:41.489Z,1024.3
2017-02-13T05:26:52.167Z,1024.3
2017-02-13T05:28:03.186Z,1024.3
2017-02-13T05:29:13.477Z,1024.29
2017-02-13T05:30:23.358Z,1024.26
2017-02-13T05:31:33.642Z,1024.26
2017-02-13T05:32:43.178Z,1024.26
2017-02-13T05:33:54.155Z,1024.18
2017-02-13T05:35:04.048Z,1024.13
2017-02-13T05:36:14.631Z,1024.2
2017-02-13T05:37:24.927Z,1024.2
2017-02-13T05:38:35.617Z,1024.17
2017-02-13T05:39:46.560Z,1024.13
2017-02-13T05:40:57.245Z,1024.13
2017-02-13T05:42:07.545Z,1024.14
2017-02-13T05:43:17.091Z,1024.1
2017-02-13T05:44:27.791Z,1024.17
2017-02-13T05:45:38.737Z,1024.12
2017-02-13T05:46:48.606Z,1024.16
2017-02-13T05:47:58.604Z,1024.08
2017-02-13T05:49:09.280Z,1024.1
2017-02-13T05:50:19.206Z,1024.1
2017-02-13T05:51:29.760Z,1024.11
2017-02-13T05:52:40.428Z,1024.15
2017-02-13T05:53:50.756Z,1024.1
2017-02-13T05:55:00.269Z,1024.12
2017-02-13T05:56:10.546Z,1024.12
2017-02-13T05:57:21.505Z,1024.08
2017-02-13T05:58:31.825Z,1024.06
2017-02-13T05:59:42.085Z,1024.01
2017-02-13T06:00:52.388Z,1024.08
2017-02-13T06:02:02.309Z,1024.04
2017-02-13T06:03:13.216Z,1024.08
2017-02-13T06:04:23.531Z,1024.07
2017-02-13T06:05:34.199Z,1024.07
2017-02-13T06:06:44.464Z,1024.08
2017-02-13T06:07:55.138Z,1024.11
2017-02-13T06:09:05.684Z,1024.12
2017-02-13T06:10:15.201Z,1024.12
2017-02-13T06:11:25.877Z,1024.2
2017-02-13T06:12:35.762Z,1024.24
2017-02-13T06:13:46.447Z,1024.24
2017-02-13T06:14:57.070Z,1024.28
2017-02-13T06:16:07.363Z,1024.34
2017-02-13T06:17:18.042Z,1024.29
2017-02-13T06:18:27.940Z,1024.4
2017-02-13T06:19:38.234Z,1024.32
2017-02-13T06:20:48.784Z,1024.41
2017-02-13T06:21:59.438Z,1024.39
2017-02-13T06:23:10.113Z,1024.3
2017-02-13T06:24:20.400Z,1024.28
2017-02-13T06:25:30.682Z,1024.29
2017-02-13T06:26:40.835Z,1024.29
2017-02-13T06:27:50.715Z,1024.29
2017-02-13T06:29:00.245Z,1024.28
2017-02-13T06:30:10.552Z,1024.23
2017-02-13T06:31:21.244Z,1024.32
2017-02-13T06:32:32.181Z,1024.28
2017-02-13T06:33:42.866Z,1024.29
2017-02-13T06:34:52.746Z,1024.24
2017-02-13T06:36:03.393Z,1024.29
2017-02-13T06:37:14.022Z,1024.33
2017-02-13T06:38:24.577Z,1024.31
2017-02-13T06:39:34.854Z,1024.37
2017-02-13T06:40:45.149Z,1024.31
2017-02-13T06:41:55.858Z,1024.39
2017-02-13T06:43:06.220Z,1024.43
2017-02-13T06:44:16.419Z,1024.47
2017-02-13T06:45:27.136Z,1024.41
2017-02-13T06:50:22.191Z,1024.48
2017-02-13T06:51:32.476Z,1024.49
2017-02-13T06:52:42.777Z,1024.46
2017-02-13T06:53:53.469Z,1024.46
2017-02-13T06:55:04.384Z,1024.4
2017-02-13T06:56:14.696Z,1024.44
2017-02-13T06:57:25.369Z,1024.47
2017-02-13T06:58:35.251Z,1024.44
2017-02-13T06:59:44.770Z,1024.49
2017-02-13T07:00:55.339Z,1024.57
2017-02-13T07:02:05.253Z,1024.62
2017-02-13T07:03:15.171Z,1024.61
2017-02-13T07:04:25.119Z,1024.68
2017-02-13T07:05:35.796Z,1024.64
2017-02-13T07:06:46.815Z,1024.59
2017-02-13T07:07:57.145Z,1024.56
2017-02-13T07:09:07.052Z,1024.59
2017-02-13T07:10:17.336Z,1024.57
2017-02-13T07:11:28.032Z,1024.57
2017-02-13T07:12:38.170Z,1024.56
2017-02-13T07:13:48.450Z,1024.59
2017-02-13T07:14:59.122Z,1024.58
2017-02-13T07:16:09.473Z,1024.65
2017-02-13T07:17:19.368Z,1024.62
2017-02-13T07:18:30.299Z,1024.67
2017-02-13T07:19:40.965Z,1024.68
2017-02-13T07:20:51.223Z,1024.78
2017-02-13T07:22:01.328Z,1024.65
2017-02-13T07:23:12.007Z,1024.6
2017-02-13T07:24:22.587Z,1024.61
2017-02-13T07:25:32.467Z,1024.57
2017-02-13T07:26:43.126Z,1024.63
2017-02-13T07:27:53.774Z,1024.71
2017-02-13T07:29:04.064Z,1024.62
2017-02-13T07:30:14.605Z,1024.67
2017-02-13T07:31:24.503Z,1024.71
2017-02-13T07:32:34.769Z,1024.71
2017-02-13T07:33:45.049Z,1024.7
2017-02-13T07:34:55.731Z,1024.61
2017-02-13T07:36:06.156Z,1024.6
2017-02-13T07:37:16.837Z,1024.64
2017-02-13T07:38:27.120Z,1024.63
2017-02-13T07:39:37.399Z,1024.63
2017-02-13T07:40:47.663Z,1024.64
2017-02-13T07:41:58.250Z,1024.62
2017-02-13T07:43:08.922Z,1024.67
2017-02-13T07:44:19.535Z,1024.63
2017-02-13T07:45:30.202Z,1024.68
2017-02-13T07:46:46.756Z,1024.64
2017-02-13T07:47:57.680Z,1024.63
2017-02-13T07:49:07.984Z,1024.64
2017-02-13T07:50:17.868Z,1024.62
2017-02-13T07:51:28.573Z,1024.63
2017-02-13T07:52:38.976Z,1024.63
2017-02-13T07:53:49.143Z,1024.58
2017-02-13T07:54:59.812Z,1024.55
2017-02-13T07:56:10.475Z,1024.57
2017-02-13T07:57:20.358Z,1024.59
2017-02-13T07:58:31.044Z,1024.63
2017-02-13T07:59:41.607Z,1024.64
2017-02-13T08:00:52.254Z,1024.6
2017-02-13T08:02:02.976Z,1024.64
2017-02-13T08:03:13.836Z,1024.61
2017-02-13T08:04:24.516Z,1024.66
2017-02-13T08:05:35.046Z,1024.61
2017-02-13T08:06:45.728Z,1024.6
2017-02-13T08:07:56.384Z,1024.6
2017-02-13T08:09:07.062Z,1024.62
2017-02-13T08:10:17.361Z,1024.68
2017-02-13T08:11:28.303Z,1024.66
2017-02-13T08:12:39.102Z,1024.6
2017-02-13T08:13:49.363Z,1024.64
2017-02-13T08:14:59.277Z,1024.6
2017-02-13T08:16:09.546Z,1024.56
2017-02-13T08:17:19.691Z,1024.66
2017-02-13T08:18:30.369Z,1024.56
2017-02-13T08:19:41.074Z,1024.56
2017-02-13T08:20:51.756Z,1024.52
2017-02-13T08:22:02.458Z,1024.62
2017-02-13T08:23:13.366Z,1024.6
2017-02-13T08:24:23.750Z,1024.61
2017-02-13T08:25:34.411Z,1024.62
2017-02-13T08:26:45.115Z,1024.61
2017-02-13T08:27:55.392Z,1024.6
2017-02-13T08:29:06.372Z,1024.56
2017-02-13T08:30:17.091Z,1024.59
2017-02-13T08:31:27.409Z,1024.52
2017-02-13T08:32:36.949Z,1024.53
2017-02-13T08:33:47.606Z,1024.5
2017-02-13T08:34:58.529Z,1024.46
2017-02-13T08:36:08.811Z,1024.48
2017-02-13T08:37:19.532Z,1024.5
2017-02-13T08:38:29.446Z,1024.52
2017-02-13T08:39:40.171Z,1024.54
2017-02-13T08:40:50.788Z,1024.55
2017-02-13T08:42:01.461Z,1024.65
2017-02-13T08:43:11.765Z,1024.57
2017-02-13T08:44:22.039Z,1024.57
2017-02-13T08:45:32.720Z,1024.51
2017-02-13T08:46:43.298Z,1024.59
2017-02-13T08:47:53.920Z,1024.53
2017-02-13T08:49:03.412Z,1024.55
2017-02-13T08:50:13.714Z,1024.54
2017-02-13T08:51:23.623Z,1024.53
2017-02-13T08:52:34.174Z,1024.53
2017-02-13T08:53:44.834Z,1024.45
2017-02-13T08:54:54.745Z,1024.53
2017-02-13T08:56:05.138Z,1024.56
2017-02-13T08:57:14.653Z,1024.45
2017-02-13T08:58:25.626Z,1024.4
2017-02-13T08:59:36.301Z,1024.37
2017-02-13T09:00:46.588Z,1024.39
2017-02-13T09:01:56.894Z,1024.45
2017-02-13T09:03:07.211Z,1024.44
2017-02-13T09:04:18.130Z,1024.42
2017-02-13T09:05:28.039Z,1024.34
2017-02-13T09:06:38.718Z,1024.37
2017-02-13T09:07:48.975Z,1024.31
2017-02-13T09:08:59.623Z,1024.31
2017-02-13T09:10:10.548Z,1024.3
2017-02-13T09:11:20.487Z,1024.3
2017-02-13T09:12:31.143Z,1024.31
2017-02-13T09:13:41.407Z,1024.31
2017-02-13T09:14:52.092Z,1024.32
2017-02-13T09:16:02.534Z,1024.34
2017-02-13T09:17:12.830Z,1024.29
2017-02-13T09:18:22.761Z,1024.37
2017-02-13T09:19:33.057Z,1024.44
2017-02-13T09:20:43.739Z,1024.38
2017-02-13T09:21:54.369Z,1024.35
2017-02-13T09:23:04.683Z,1024.32
2017-02-13T09:24:15.328Z,1024.33
2017-02-13T09:25:25.249Z,1024.33
2017-02-13T09:26:35.167Z,1024.31
2017-02-13T09:27:45.379Z,1024.34
2017-02-13T09:28:55.270Z,1024.28
2017-02-13T09:30:05.969Z,1024.26
2017-02-13T09:31:15.863Z,1024.33
2017-02-13T09:32:26.153Z,1024.32
2017-02-13T09:33:36.304Z,1024.32
2017-02-13T09:34:46.973Z,1024.26
2017-02-13T09:35:56.493Z,1024.27
2017-02-13T09:37:06.789Z,1024.28
2017-02-13T09:38:16.707Z,1024.28
2017-02-13T09:39:26.871Z,1024.33
2017-02-13T09:40:37.526Z,1024.33
2017-02-13T09:41:47.843Z,1024.36
2017-02-13T09:42:58.185Z,1024.33
2017-02-13T09:44:08.458Z,1024.31
2017-02-13T09:45:19.412Z,1024.31
2017-02-13T09:46:29.729Z,1024.25
2017-02-13T09:47:40.399Z,1024.2
2017-02-13T09:48:50.692Z,1024.29
2017-02-13T09:50:00.983Z,1024.25
2017-02-13T09:51:11.552Z,1024.29
2017-02-13T09:52:21.824Z,1024.32
2017-02-13T09:53:32.134Z,1024.28
2017-02-13T09:54:42.813Z,1024.24
2017-02-13T09:55:53.511Z,1024.29
2017-02-13T09:57:04.061Z,1024.33
2017-02-13T09:58:14.345Z,1024.28
2017-02-13T09:59:24.646Z,1024.4
2017-02-13T10:00:35.314Z,1024.33
2017-02-13T10:01:45.625Z,1024.32
2017-02-13T10:02:56.156Z,1024.39
2017-02-13T10:04:06.837Z,1024.28
2017-02-13T10:05:16.347Z,1024.31
2017-02-13T10:06:26.690Z,1024.33
2017-02-13T10:07:37.054Z,1024.33
2017-02-13T10:08:48.103Z,1024.38
2017-02-13T10:09:58.852Z,1024.38
2017-02-13T10:11:09.537Z,1024.41
2017-02-13T10:12:19.836Z,1024.37
2017-02-13T10:13:30.178Z,1024.35
2017-02-13T10:14:40.719Z,1024.35
2017-02-13T10:15:51.023Z,1024.33
2017-02-13T10:17:00.936Z,1024.36
2017-02-13T10:18:11.642Z,1024.3
2017-02-13T10:19:21.925Z,1024.33
2017-02-13T10:20:32.486Z,1024.32
2017-02-13T10:21:43.154Z,1024.37
2017-02-13T10:22:53.430Z,1024.41
2017-02-13T10:24:03.754Z,1024.33
2017-02-13T10:25:13.679Z,1024.31
2017-02-13T10:26:24.224Z,1024.34
2017-02-13T10:27:34.179Z,1024.33
2017-02-13T10:28:44.091Z,1024.31
2017-02-13T10:29:54.760Z,1024.32
2017-02-13T10:31:05.492Z,1024.33
2017-02-13T10:32:16.470Z,1024.34
2017-02-13T10:33:26.366Z,1024.33
2017-02-13T10:34:36.276Z,1024.29
2017-02-13T10:35:46.627Z,1024.34
2017-02-13T10:36:56.890Z,1024.33
2017-02-13T10:38:07.431Z,1024.37
2017-02-13T10:39:17.747Z,1024.3
2017-02-13T10:40:28.048Z,1024.3
2017-02-13T10:41:37.940Z,1024.3
2017-02-13T10:42:48.620Z,1024.39
2017-02-13T10:43:58.774Z,1024.35
2017-02-13T10:45:09.443Z,1024.38
2017-02-13T10:46:19.737Z,1024.39
2017-02-13T10:47:30.451Z,1024.32
2017-02-13T10:48:39.953Z,1024.3
2017-02-13T10:49:50.526Z,1024.33
2017-02-13T10:51:01.226Z,1024.28
2017-02-13T10:52:11.512Z,1024.26
2017-02-13T10:53:21.798Z,1024.26
2017-02-13T10:54:32.465Z,1024.29
2017-02-13T10:55:42.987Z,1024.25
2017-02-13T10:56:53.282Z,1024.25
2017-02-13T10:58:03.556Z,1024.22
2017-02-13T10:59:14.523Z,1024.23
2017-02-13T11:00:25.198Z,1024.17
2017-02-13T11:01:36.117Z,1024.14
2017-02-13T11:02:46.782Z,1024.16
2017-02-13T11:03:57.476Z,1024.09
2017-02-13T11:05:07.770Z,1024.14
2017-02-13T11:06:18.069Z,1024.13
2017-02-13T11:07:28.637Z,1024.13
2017-02-13T11:08:39.315Z,1024.06
2017-02-13T11:09:49.591Z,1024.04
2017-02-13T11:10:59.863Z,1023.99
2017-02-13T11:12:10.199Z,1023.99
2017-02-13T11:13:20.734Z,1023.99
2017-02-13T11:14:31.013Z,1023.99
2017-02-13T11:15:40.937Z,1023.97
2017-02-13T11:16:51.610Z,1024.02
2017-02-13T11:18:02.293Z,1024
2017-02-13T11:19:12.085Z,1024
2017-02-13T11:20:22.750Z,1024.02
2017-02-13T11:21:33.043Z,1023.99
2017-02-13T11:22:43.339Z,1024.01
2017-02-13T11:23:54.032Z,1023.95
2017-02-13T11:25:04.588Z,1023.93
2017-02-13T11:26:14.503Z,1023.89
2017-02-13T11:27:24.772Z,1023.9
2017-02-13T11:28:35.041Z,1023.9
2017-02-13T11:29:45.749Z,1023.8
2017-02-13T11:30:55.905Z,1023.78
2017-02-13T11:32:06.242Z,1023.85
2017-02-13T11:33:16.205Z,1023.88
2017-02-13T11:34:26.150Z,1023.83
2017-02-13T11:35:35.656Z,1023.77
2017-02-13T11:36:46.435Z,1023.82
2017-02-13T11:37:57.415Z,1023.79
2017-02-13T11:39:07.325Z,1023.75
2017-02-13T11:40:17.238Z,1023.76
2017-02-13T11:41:27.574Z,1023.79
2017-02-13T11:42:38.543Z,1023.74
2017-02-13T11:43:49.227Z,1023.75
2017-02-13T11:44:58.743Z,1023.77
2017-02-13T11:46:08.653Z,1023.7
2017-02-13T11:47:19.318Z,1023.68
2017-02-13T11:48:30.238Z,1023.66
2017-02-13T11:49:40.539Z,1023.74
2017-02-13T11:50:50.453Z,1023.69
2017-02-13T11:52:01.133Z,1023.62
2017-02-13T11:53:11.809Z,1023.65
2017-02-13T11:54:22.350Z,1023.67
2017-02-13T11:55:32.619Z,1023.59
2017-02-13T11:56:42.939Z,1023.59
2017-02-13T11:57:53.246Z,1023.65
2017-02-13T11:59:02.765Z,1023.58
2017-02-13T12:00:13.352Z,1023.62
2017-02-13T12:01:23.672Z,1023.65
2017-02-13T12:02:33.968Z,1023.59
2017-02-13T12:03:43.909Z,1023.64
2017-02-13T12:04:53.828Z,1023.69
2017-02-13T12:06:04.424Z,1023.71
2017-02-13T12:07:14.719Z,1023.7
2017-02-13T12:08:24.638Z,1023.68
2017-02-13T12:09:34.915Z,1023.71
2017-02-13T12:10:45.183Z,1023.64
2017-02-13T12:11:56.119Z,1023.7
2017-02-13T12:13:06.407Z,1023.68
2017-02-13T12:14:16.303Z,1023.64
2017-02-13T12:15:26.983Z,1023.6
2017-02-13T12:16:36.942Z,1023.59
2017-02-13T12:17:47.902Z,1023.57
2017-02-13T12:18:57.804Z,1023.49
2017-02-13T12:20:08.501Z,1023.5
2017-02-13T12:21:18.003Z,1023.48
2017-02-13T12:22:27.909Z,1023.4
2017-02-13T12:23:38.454Z,1023.42
2017-02-13T12:24:49.138Z,1023.4
2017-02-13T12:25:59.308Z,1023.48
2017-02-13T12:27:09.604Z,1023.47
2017-02-13T12:28:19.480Z,1023.4
2017-02-13T12:29:30.027Z,1023.35
2017-02-13T12:30:40.764Z,1023.43
2017-02-13T12:31:51.044Z,1023.42
2017-02-13T12:33:01.412Z,1023.41
2017-02-13T12:34:12.126Z,1023.38
2017-02-13T12:35:22.744Z,1023.35
2017-02-13T12:36:33.433Z,1023.4
2017-02-13T12:37:44.139Z,1023.38
2017-02-13T12:38:54.409Z,1023.43
2017-02-13T12:40:05.104Z,1023.35
2017-02-13T12:41:16.010Z,1023.3
2017-02-13T12:42:26.349Z,1023.33
2017-02-13T12:43:37.051Z,1023.33
2017-02-13T12:45:31.445Z,1023.31
2017-02-13T12:46:41.655Z,1023.33
2017-02-13T12:47:52.351Z,1023.35
2017-02-13T12:49:03.049Z,1023.32
2017-02-13T12:50:13.323Z,1023.28
2017-02-13T12:51:23.987Z,1023.26
2017-02-13T12:52:34.992Z,1023.24
2017-02-13T12:53:45.265Z,1023.26
2017-02-13T12:54:55.919Z,1023.26
2017-02-13T12:56:06.218Z,1023.24
2017-02-13T12:57:16.486Z,1023.24
2017-02-13T12:58:27.414Z,1023.29
2017-02-13T12:59:38.135Z,1023.29
2017-02-13T13:00:48.822Z,1023.33
2017-02-13T13:01:59.508Z,1023.28
2017-02-13T13:03:09.426Z,1023.29
2017-02-13T13:04:20.365Z,1023.36
2017-02-13T13:05:30.657Z,1023.34
2017-02-13T13:06:41.342Z,1023.36
2017-02-13T13:07:52.004Z,1023.27
2017-02-13T13:09:01.911Z,1023.24
2017-02-13T13:10:12.433Z,1023.21
2017-02-13T13:11:23.140Z,1023.19
2017-02-13T13:12:33.799Z,1023.16
2017-02-13T13:13:44.108Z,1023.16
2017-02-13T13:14:54.390Z,1023.14
2017-02-13T13:16:04.903Z,1023.16
2017-02-13T13:17:15.593Z,1023.12
2017-02-13T13:18:25.107Z,1023.16
2017-02-13T13:19:34.612Z,1023.14
2017-02-13T13:20:45.285Z,1023.12
2017-02-13T13:21:56.225Z,1023.06
2017-02-13T13:23:06.906Z,1023.09
2017-02-13T13:24:17.214Z,1023.08
2017-02-13T13:25:27.501Z,1023.09
2017-02-13T13:26:37.434Z,1023.07
2017-02-13T13:27:47.981Z,1023.02
2017-02-13T13:28:58.629Z,1023.03
2017-02-13T13:30:08.527Z,1022.98
2017-02-13T13:31:18.794Z,1023
2017-02-13T13:32:29.140Z,1022.97
2017-02-13T13:33:40.061Z,1023
2017-02-13T13:34:50.346Z,1022.96
2017-02-13T13:36:00.624Z,1023.01
2017-02-13T13:37:10.908Z,1022.98
2017-02-13T13:38:21.571Z,1022.97
2017-02-13T13:39:32.138Z,1022.92
2017-02-13T13:40:42.060Z,1022.95
2017-02-13T13:41:52.715Z,1022.93
2017-02-13T13:43:02.987Z,1022.96
2017-02-13T13:44:13.304Z,1022.96
2017-02-13T13:45:23.457Z,1022.93
2017-02-13T13:46:33.732Z,1022.9
2017-02-13T13:47:44.030Z,1022.86
2017-02-13T13:48:54.729Z,1022.89
2017-02-13T13:50:05.044Z,1022.85
2017-02-13T13:51:16.005Z,1022.83
2017-02-13T13:52:26.689Z,1022.81
2017-02-13T13:53:36.617Z,1022.8
2017-02-13T13:54:47.283Z,1022.73
2017-02-13T13:55:57.968Z,1022.77
2017-02-13T13:57:08.109Z,1022.83
2017-02-13T13:58:18.032Z,1022.78
2017-02-13T13:59:28.741Z,1022.79
2017-02-13T14:00:38.650Z,1022.78
2017-02-13T14:01:49.337Z,1022.79
2017-02-13T14:02:59.902Z,1022.75
2017-02-13T14:04:10.219Z,1022.77
2017-02-13T14:05:20.136Z,1022.74
2017-02-13T14:06:30.043Z,1022.75
2017-02-13T14:07:40.326Z,1022.8
2017-02-13T14:08:50.854Z,1022.79
2017-02-13T14:10:00.369Z,1022.76
2017-02-13T14:11:10.666Z,1022.74
2017-02-13T14:12:20.551Z,1022.72
2017-02-13T14:13:31.275Z,1022.71
2017-02-13T14:14:42.233Z,1022.8
2017-02-13T14:15:52.113Z,1022.76
2017-02-13T14:17:02.792Z,1022.76
2017-02-13T14:18:12.702Z,1022.77
2017-02-13T14:19:23.370Z,1022.74